Time;durP1;ratioP1;P1;durP2;ratioP2;P2;SDS_P1;SDS_P2;PMS_P1;PMS_P2;Temp;Humidity;BMP_temperature;BMP_pressure;BME280_temperature;BME280_humidity;BME280_pressure;Samples;Min_cycle;Max_cycle;Signal;HPM_P1;HPM_P2
2024/01/28 00:01:52;;;;;;;18.95;9.85;;;;;;;2.30;87.27;103032.03;3540533;40;20050;-66
2024/01/28 00:04:18;;;;;;;19.77;10.93;;;;;;;2.28;87.02;103033.78;3539871;40;20050;-65
2024/01/28 00:06:44;;;;;;;20.02;10.63;;;;;;;2.24;86.67;103021.38;3539028;40;20462;-66
2024/01/28 00:09:09;;;;;;;20.38;10.32;;;;;;;2.23;85.63;103024.91;3539519;40;20422;-66
2024/01/28 00:11:36;;;;;;;18.85;9.75;;;;;;;2.18;85.91;103018.66;3538759;40;20103;-66
2024/01/28 00:14:02;;;;;;;20.30;9.45;;;;;;;2.13;86.06;103015.09;3541231;40;20355;-66
2024/01/28 00:16:27;;;;;;;18.60;9.10;;;;;;;2.12;86.83;103016.84;3539430;40;20062;-66
2024/01/28 00:18:58;;;;;;;15.15;8.40;;;;;;;2.08;86.78;103010.63;3539903;40;20054;-66
2024/01/28 00:21:25;;;;;;;15.65;8.50;;;;;;;2.13;87.43;103015.09;3538153;40;20058;-66
2024/01/28 00:23:51;;;;;;;14.45;8.48;;;;;;;2.14;86.79;103006.25;3539020;40;20054;-66
2024/01/28 00:26:17;;;;;;;18.33;8.40;;;;;;;2.14;86.71;102995.66;3539274;40;20058;-68
2024/01/28 00:28:42;;;;;;;23.30;8.45;;;;;;;2.13;86.01;103000.06;3538898;40;20061;-66
2024/01/28 00:31:10;;;;;;;15.43;7.85;;;;;;;2.11;86.71;102995.63;3537462;40;20066;-66
2024/01/28 00:33:35;;;;;;;20.95;9.05;;;;;;;2.04;86.15;102994.69;3538470;40;20058;-66
2024/01/28 00:36:01;;;;;;;16.30;8.38;;;;;;;1.99;85.22;102991.09;3540915;40;20053;-66
2024/01/28 00:38:31;;;;;;;16.40;8.10;;;;;;;1.95;85.45;103003.44;3538380;40;20069;-66
2024/01/28 00:41:00;;;;;;;12.75;7.68;;;;;;;1.77;86.52;102972.34;3539276;40;20072;-67
2024/01/28 00:43:27;;;;;;;15.25;8.02;;;;;;;1.95;86.86;103000.78;3538700;40;20062;-67
2024/01/28 00:45:53;;;;;;;17.58;7.95;;;;;;;1.62;85.45;102943.94;3538986;40;20400;-67
2024/01/28 00:48:18;;;;;;;14.88;7.65;;;;;;;1.92;85.44;102995.47;3538556;40;20094;-66
2024/01/28 00:50:44;;;;;;;16.10;8.57;;;;;;;1.77;85.86;102966.16;3539880;40;20057;-67
2024/01/28 00:53:10;;;;;;;16.30;7.93;;;;;;;1.86;85.03;102976.84;3539413;40;20054;-67
2024/01/28 00:55:36;;;;;;;17.45;8.60;;;;;;;1.84;86.32;102974.19;3538428;40;20086;-67
2024/01/28 00:58:04;;;;;;;14.95;7.85;;;;;;;1.82;86.46;102972.41;3538693;40;20050;-67
2024/01/28 01:00:31;;;;;;;12.98;7.82;;;;;;;1.78;86.79;102974.13;3538447;40;20067;-67
2024/01/28 01:02:56;;;;;;;17.70;8.40;;;;;;;1.73;86.18;102957.28;3540088;40;20363;-67
2024/01/28 01:05:22;;;;;;;17.00;8.38;;;;;;;1.68;86.70;102947.50;3537935;40;20065;-67
2024/01/28 01:07:48;;;;;;;17.05;7.82;;;;;;;1.61;85.84;102934.19;3538001;40;20057;-67
2024/01/28 01:10:14;;;;;;;15.48;7.53;;;;;;;1.75;86.18;102957.31;3537395;40;20072;-66
2024/01/28 01:12:40;;;;;;;15.70;7.82;;;;;;;1.77;85.29;102960.84;3539714;40;20065;-67
2024/01/28 01:15:06;;;;;;;12.00;8.23;;;;;;;1.70;86.31;102948.41;3539169;40;20062;-67
2024/01/28 01:17:32;;;;;;;18.75;7.90;;;;;;;1.75;85.49;102955.53;3537321;40;20772;-66
2024/01/28 01:19:57;;;;;;;16.90;8.00;;;;;;;1.77;85.49;102960.84;3539485;40;20062;-67
2024/01/28 01:22:23;;;;;;;13.88;7.30;;;;;;;1.79;85.18;102949.38;3538570;40;20093;-67
2024/01/28 01:24:48;;;;;;;18.02;7.50;;;;;;;1.81;86.54;102960.03;3538266;40;20042;-66
2024/01/28 01:27:14;;;;;;;17.38;8.65;;;;;;;1.71;86.49;102928.97;3538633;40;20348;-67
2024/01/28 01:29:39;;;;;;;12.68;7.72;;;;;;;1.80;87.14;102945.84;3537712;40;20061;-66
2024/01/28 01:32:05;;;;;;;16.70;7.40;;;;;;;1.85;86.99;102940.59;3538662;40;20053;-67
2024/01/28 01:34:31;;;;;;;15.25;7.68;;;;;;;1.86;87.22;102953.84;3538597;40;20292;-67
2024/01/28 01:36:56;;;;;;;15.57;8.23;;;;;;;1.85;87.05;102945.91;3539887;40;20098;-67
2024/01/28 01:39:22;;;;;;;14.27;7.63;;;;;;;1.83;85.90;102948.53;3541152;40;20234;-67
2024/01/28 01:41:48;;;;;;;12.18;7.63;;;;;;;1.78;85.52;102944.97;3541449;40;20057;-67
2024/01/28 01:44:13;;;;;;;18.55;8.30;;;;;;;1.75;85.71;102950.25;3540070;40;20112;-67
2024/01/28 01:46:42;;;;;;;15.88;7.38;;;;;;;1.72;86.26;102949.34;3542180;40;20058;-66
2024/01/28 01:49:10;;;;;;;12.20;7.13;;;;;;;1.68;85.89;102956.38;3540949;40;20121;-67
2024/01/28 01:51:36;;;;;;;16.60;8.30;;;;;;;1.64;85.15;102957.19;3541058;40;20046;-67
2024/01/28 01:54:02;;;;;;;13.38;7.47;;;;;;;1.58;84.78;102951.84;3542240;40;20095;-67
2024/01/28 01:56:33;;;;;;;20.02;7.68;;;;;;;1.56;85.41;102964.19;3538385;40;20051;-67
2024/01/28 01:58:58;;;;;;;17.52;7.57;;;;;;;1.52;85.53;102952.69;3540860;40;20062;-67
2024/01/28 02:01:26;;;;;;;12.82;7.32;;;;;;;1.44;85.85;102943.75;3538615;40;20064;-68
2024/01/28 02:03:54;;;;;;;14.38;7.35;;;;;;;1.48;85.07;102950.84;3540497;40;20051;-67
2024/01/28 02:06:20;;;;;;;15.82;7.88;;;;;;;1.40;85.16;102939.31;3540123;40;20097;-67
2024/01/28 02:08:45;;;;;;;13.77;7.25;;;;;;;1.43;86.00;102947.28;3539190;40;20090;-66
2024/01/28 02:11:11;;;;;;;14.90;7.35;;;;;;;1.42;85.12;102956.09;3541601;40;20387;-67
2024/01/28 02:13:38;;;;;;;12.50;6.93;;;;;;;1.24;85.71;102919.72;3539029;40;20284;-67
2024/01/28 02:16:04;;;;;;;17.42;7.38;;;;;;;1.37;86.24;102948.09;3537511;40;20054;-67
2024/01/28 02:18:29;;;;;;;15.68;7.82;;;;;;;1.37;86.61;102947.22;3540030;40;20272;-67
2024/01/28 02:20:55;;;;;;;14.13;8.25;;;;;;;1.34;86.28;102931.28;3539333;40;20128;-67
2024/01/28 02:23:21;;;;;;;24.23;12.93;;;;;;;1.35;86.47;102933.94;3538670;40;20400;-67
2024/01/28 02:25:49;;;;;;;19.60;13.02;;;;;;;1.34;87.74;102931.28;3539476;40;20085;-67
2024/01/28 02:28:16;;;;;;;16.08;9.45;;;;;;;1.32;87.22;102918.00;3538972;40;20061;-66
2024/01/28 02:30:42;;;;;;;17.30;8.52;;;;;;;1.28;86.61;102913.56;3539612;40;20101;-67
2024/01/28 02:33:08;;;;;;;21.85;8.77;;;;;;;1.23;87.16;102903.78;3540689;40;20082;-66
2024/01/28 02:35:33;;;;;;;14.48;8.30;;;;;;;1.19;87.14;102915.22;3533281;40;20150;-67
2024/01/28 02:37:59;;;;;;;17.33;8.82;;;;;;;1.13;87.77;102905.44;3539918;40;20069;-67
2024/01/28 02:40:24;;;;;;;14.00;7.85;;;;;;;1.07;87.76;102890.38;3537799;40;20384;-67
2024/01/28 02:42:50;;;;;;;14.20;8.55;;;;;;;0.98;87.52;102878.81;3539140;40;20062;-67
2024/01/28 02:45:18;;;;;;;14.68;8.68;;;;;;;1.05;87.09;102896.56;3539793;40;20162;-66
2024/01/28 02:47:44;;;;;;;19.33;9.38;;;;;;;1.02;88.04;102893.88;3540090;40;20062;-67
2024/01/28 02:50:09;;;;;;;16.90;9.40;;;;;;;0.96;87.46;102885.84;3541730;40;20093;-67
2024/01/28 02:52:35;;;;;;;15.23;9.45;;;;;;;0.96;87.79;102891.16;3538402;40;20066;-67
2024/01/28 02:55:00;;;;;;;15.70;8.68;;;;;;;0.91;86.82;102893.72;3539058;40;20438;-67
2024/01/28 02:57:26;;;;;;;19.95;9.57;;;;;;;0.64;88.23;102842.25;3539799;40;20062;-67
2024/01/28 02:59:52;;;;;;;16.27;8.73;;;;;;;0.89;87.62;102882.25;3538758;40;20043;-67
2024/01/28 03:02:18;;;;;;;19.15;8.93;;;;;;;0.86;87.85;102887.53;3539472;40;20046;-67
2024/01/28 03:04:44;;;;;;;14.40;8.43;;;;;;;0.87;87.47;102889.28;3539407;40;20054;-67
2024/01/28 03:07:10;;;;;;;13.52;8.43;;;;;;;0.84;86.51;102890.13;3540252;40;20126;-67
2024/01/28 03:09:36;;;;;;;13.68;8.00;;;;;;;0.84;87.42;102891.91;3539169;40;20112;-67
2024/01/28 03:12:02;;;;;;;15.10;8.38;;;;;;;0.81;87.34;102883.91;3539057;40;20310;-67
2024/01/28 03:14:27;;;;;;;16.63;8.98;;;;;;;0.60;86.48;102851.03;3538296;40;20074;-67
2024/01/28 03:16:53;;;;;;;13.85;8.23;;;;;;;0.79;86.27;102875.06;3540956;40;20058;-67
2024/01/28 03:19:18;;;;;;;13.27;8.02;;;;;;;0.79;87.06;102867.13;3540843;40;20065;-66
2024/01/28 03:21:44;;;;;;;17.58;8.73;;;;;;;0.77;87.77;102864.47;3539385;40;20057;-66
2024/01/28 03:24:10;;;;;;;13.38;8.63;;;;;;;0.73;87.40;102853.81;3547409;40;20060;-67
2024/01/28 03:26:35;;;;;;;16.45;8.05;;;;;;;0.77;86.33;102867.13;3541430;40;20057;-67
2024/01/28 03:29:04;;;;;;;16.80;7.85;;;;;;;0.75;87.09;102865.31;3540739;40;20071;-67
2024/01/28 03:31:30;;;;;;;17.30;7.53;;;;;;;0.75;87.26;102857.38;3537949;40;20050;-67
2024/01/28 03:33:56;;;;;;;14.80;7.80;;;;;;;0.73;86.29;102862.66;3538316;40;20055;-67
2024/01/28 03:36:21;;;;;;;15.68;7.63;;;;;;;0.71;86.49;102863.50;3538850;40;20160;-67
2024/01/28 03:38:47;;;;;;;13.93;7.63;;;;;;;0.69;86.52;102855.53;3538545;40;20050;-67
2024/01/28 03:41:16;;;;;;;15.25;7.90;;;;;;;0.64;86.37;102862.56;3538223;40;20292;-67
2024/01/28 03:43:46;;;;;;;14.75;7.53;;;;;;;0.60;86.52;102858.06;3537740;40;20050;-67
2024/01/28 03:46:13;;;;;;;12.25;7.20;;;;;;;0.62;86.10;102854.56;3540921;40;20314;-67
2024/01/28 03:48:38;;;;;;;14.48;7.50;;;;;;;0.62;86.13;102864.28;3537825;40;20096;-67
2024/01/28 03:51:04;;;;;;;13.80;7.20;;;;;;;0.62;86.84;102862.50;3540044;40;20407;-67
2024/01/28 03:53:30;;;;;;;17.05;8.05;;;;;;;0.61;87.43;102858.09;3537606;40;20054;-70
2024/01/28 03:55:56;;;;;;;10.70;7.20;;;;;;;0.58;87.87;102839.53;3538074;40;20066;-67
2024/01/28 03:58:21;;;;;;;15.93;7.97;;;;;;;0.58;88.40;102846.59;3539080;40;20085;-67
2024/01/28 04:00:47;;;;;;;17.15;7.25;;;;;;;0.60;88.76;102842.19;3537178;40;20046;-67
2024/01/28 04:03:13;;;;;;;17.83;7.43;;;;;;;0.64;88.62;102846.66;3540947;40;20053;-66
2024/01/28 04:05:38;;;;;;;11.40;7.28;;;;;;;0.72;89.22;102850.28;3537407;40;20098;-67
2024/01/28 04:08:08;;;;;;;15.55;6.82;;;;;;;0.82;89.25;102852.16;3537321;40;20467;-67
2024/01/28 04:10:34;;;;;;;10.18;5.80;;;;;;;0.92;89.15;102855.81;3538142;40;20150;-67
2024/01/28 04:13:00;;;;;;;16.00;6.22;;;;;;;0.98;88.57;102854.97;3539454;40;20151;-67
2024/01/28 04:15:25;;;;;;;15.50;6.53;;;;;;;0.96;88.30;102859.38;3541083;40;20062;-67
2024/01/28 04:17:51;;;;;;;14.15;6.95;;;;;;;0.99;87.47;102859.41;3540638;40;20277;-67
2024/01/28 04:20:16;;;;;;;16.88;6.38;;;;;;;1.02;87.71;102849.75;3540035;40;20046;-67
2024/01/28 04:22:42;;;;;;;16.95;6.45;;;;;;;1.08;88.46;102852.44;3537869;40;20140;-67
2024/01/28 04:25:08;;;;;;;10.85;6.18;;;;;;;1.12;87.16;102848.06;3539978;40;20058;-67
2024/01/28 04:27:34;;;;;;;17.67;6.95;;;;;;;1.13;88.22;102845.41;3540900;40;20135;-67
2024/01/28 04:30:00;;;;;;;14.40;5.80;;;;;;;1.19;86.95;102841.06;3539490;40;20062;-67
2024/01/28 04:32:25;;;;;;;12.32;6.07;;;;;;;1.22;87.45;102831.38;3538429;40;20062;-67
2024/01/28 04:34:51;;;;;;;12.15;5.38;;;;;;;1.24;87.59;102827.00;3539138;40;20081;-67
2024/01/28 04:37:16;;;;;;;15.80;6.40;;;;;;;1.27;86.71;102823.47;3540396;40;20066;-68
2024/01/28 04:39:42;;;;;;;15.15;5.97;;;;;;;1.29;87.37;102824.38;3540588;40;20056;-67
2024/01/28 04:42:08;;;;;;;16.77;5.70;;;;;;;1.16;86.90;102796.88;3541904;40;20053;-67
2024/01/28 04:44:33;;;;;;;12.60;5.65;;;;;;;1.32;86.02;102821.75;3541357;40;20050;-67
2024/01/28 04:46:59;;;;;;;11.00;5.95;;;;;;;1.29;85.20;102808.47;3540575;40;20054;-67
2024/01/28 04:49:25;;;;;;;16.13;5.75;;;;;;;1.31;85.80;102812.03;3540977;40;20065;-67
2024/01/28 04:51:51;;;;;;;14.23;5.18;;;;;;;1.37;85.36;102814.75;3540319;40;20115;-67
2024/01/28 04:54:17;;;;;;;8.13;4.95;;;;;;;1.38;86.07;102812.09;3544154;40;20334;-67
2024/01/28 04:56:44;;;;;;;13.40;5.40;;;;;;;1.39;85.41;102807.69;3540420;40;20065;-67
2024/01/28 04:59:10;;;;;;;14.20;6.45;;;;;;;1.34;85.40;102798.81;3540552;40;20097;-67
2024/01/28 05:01:35;;;;;;;12.85;4.93;;;;;;;1.42;85.74;102812.13;3541293;40;20054;-67
2024/01/28 05:04:01;;;;;;;16.88;5.45;;;;;;;1.40;85.07;102804.16;3541571;40;20395;-67
2024/01/28 05:06:34;;;;;;;12.98;5.40;;;;;;;1.12;84.26;102766.84;3541612;40;20050;-66
2024/01/28 05:09:04;;;;;;;13.45;6.47;;;;;;;1.38;83.96;102811.22;3542557;40;20046;-67
2024/01/28 05:11:31;;;;;;;14.30;5.25;;;;;;;1.39;85.19;102815.63;3539810;40;20098;-66
2024/01/28 05:13:57;;;;;;;11.85;5.40;;;;;;;1.38;85.02;102821.81;3541170;40;20399;-66
2024/01/28 05:16:24;;;;;;;14.48;6.00;;;;;;;1.36;84.21;102810.28;3543231;40;20061;-66
2024/01/28 05:18:51;;;;;;;9.70;5.32;;;;;;;1.27;84.97;102791.66;3541973;40;20070;-66
2024/01/28 05:21:21;;;;;;;14.45;5.82;;;;;;;1.38;85.29;102800.63;3541726;40;20054;-66
2024/01/28 05:23:47;;;;;;;12.90;5.03;;;;;;;1.38;84.08;102808.56;3542835;40;20085;-66
2024/01/28 05:26:16;;;;;;;9.18;5.50;;;;;;;1.38;83.98;102795.31;3543077;40;20062;-66
2024/01/28 05:28:41;;;;;;;13.43;5.22;;;;;;;1.34;84.14;102790.88;3542427;40;20062;-66
2024/01/28 05:31:08;;;;;;;11.90;5.38;;;;;;;1.33;83.50;102797.03;3544406;40;20077;-66
2024/01/28 05:33:37;;;;;;;10.73;5.40;;;;;;;1.29;84.58;102796.13;3544796;40;20046;-66
2024/01/28 05:36:11;;;;;;;10.15;5.20;;;;;;;1.07;83.81;102755.31;3542580;40;20106;-67
2024/01/28 05:38:36;;;;;;;10.68;5.13;;;;;;;1.23;84.42;102782.81;3541535;40;20283;-67
2024/01/28 05:41:02;;;;;;;15.98;5.45;;;;;;;1.17;83.43;102769.53;3542561;40;20054;-66
2024/01/28 05:43:27;;;;;;;13.57;5.95;;;;;;;1.13;84.76;102773.91;3542232;40;20042;-66
2024/01/28 05:45:53;;;;;;;10.13;5.63;;;;;;;1.12;85.41;102769.50;3541119;40;20066;-66
2024/01/28 05:48:19;;;;;;;12.80;5.95;;;;;;;1.13;85.96;102768.59;3542414;40;20058;-66
2024/01/28 05:50:44;;;;;;;13.23;6.32;;;;;;;1.13;84.95;102768.59;3544002;40;20064;-66
2024/01/28 05:53:10;;;;;;;11.90;6.20;;;;;;;0.95;85.69;102731.38;3542493;40;20058;-66
2024/01/28 05:55:35;;;;;;;14.93;6.20;;;;;;;1.18;85.66;102765.13;3543950;40;20073;-66
2024/01/28 05:58:01;;;;;;;9.75;5.43;;;;;;;1.21;85.50;102766.03;3543731;40;20315;-66
2024/01/28 06:00:26;;;;;;;9.20;5.80;;;;;;;1.21;83.87;102766.03;3541181;40;20056;-66
2024/01/28 06:02:52;;;;;;;11.35;6.40;;;;;;;1.20;84.88;102756.31;3541699;40;20054;-67
2024/01/28 06:05:18;;;;;;;14.27;7.03;;;;;;;1.07;83.64;102736.78;3542675;40;20057;-66
2024/01/28 06:07:43;;;;;;;10.00;5.90;;;;;;;1.21;84.54;102744.84;3541639;40;20061;-68
2024/01/28 06:10:09;;;;;;;12.15;5.78;;;;;;;1.22;83.59;102746.63;3543343;40;20145;-66
2024/01/28 06:12:35;;;;;;;13.15;5.90;;;;;;;1.23;84.02;102736.91;3544588;40;20054;-66
2024/01/28 06:15:05;;;;;;;13.40;5.70;;;;;;;1.22;84.10;102732.50;3541318;40;20069;-66
2024/01/28 06:17:31;;;;;;;11.48;5.85;;;;;;;1.23;84.23;102736.91;3542021;40;20054;-66
2024/01/28 06:19:57;;;;;;;12.90;5.75;;;;;;;1.11;83.99;102711.19;3542725;40;20343;-66
2024/01/28 06:22:22;;;;;;;13.05;5.78;;;;;;;1.23;82.83;102732.50;3542449;40;20132;-66
2024/01/28 06:24:48;;;;;;;10.25;5.72;;;;;;;1.20;83.24;102729.81;3541632;40;20132;-66
2024/01/28 06:27:13;;;;;;;8.68;5.22;;;;;;;1.09;82.91;102713.84;3543581;40;20090;-66
2024/01/28 06:29:39;;;;;;;9.60;5.00;;;;;;;1.19;83.85;102737.75;3541808;40;20421;-66
2024/01/28 06:32:05;;;;;;;13.60;5.45;;;;;;;1.18;83.64;102725.41;3542180;40;20059;-66
2024/01/28 06:34:31;;;;;;;11.68;5.60;;;;;;;1.19;83.11;102729.81;3543201;40;20113;-66
2024/01/28 06:36:56;;;;;;;11.50;5.45;;;;;;;1.18;83.10;102728.06;3541590;40;20446;-66
2024/01/28 06:39:22;;;;;;;10.02;5.88;;;;;;;1.15;83.47;102721.84;3541793;40;20061;-66
2024/01/28 06:41:48;;;;;;;10.32;5.38;;;;;;;1.10;83.19;102720.91;3540585;40;20054;-66
2024/01/28 06:44:14;;;;;;;10.55;4.80;;;;;;;1.10;82.70;102714.72;3534363;40;20057;-66
2024/01/28 06:46:40;;;;;;;9.80;5.47;;;;;;;1.08;82.95;102722.69;3540788;40;20110;-66
2024/01/28 06:49:06;;;;;;;11.30;5.13;;;;;;;1.06;82.17;102724.41;3541774;40;20053;-66
2024/01/28 06:51:31;;;;;;;11.90;5.07;;;;;;;1.05;82.58;102717.38;3544106;40;20060;-67
2024/01/28 06:53:57;;;;;;;12.48;4.70;;;;;;;1.05;82.55;102711.19;3543858;40;20073;-66
2024/01/28 06:56:23;;;;;;;10.02;4.95;;;;;;;1.01;83.52;102712.00;3543222;40;20386;-67
2024/01/28 06:58:49;;;;;;;9.88;5.00;;;;;;;0.97;82.71;102705.81;3540821;40;20062;-66
2024/01/28 07:01:14;;;;;;;8.23;4.85;;;;;;;0.96;82.14;102705.81;3541392;40;20058;-66
2024/01/28 07:03:40;;;;;;;11.32;4.90;;;;;;;0.82;82.93;102690.66;3544224;40;20054;-65
2024/01/28 07:06:06;;;;;;;10.18;4.82;;;;;;;0.95;82.56;102715.50;3545031;40;20063;-66
2024/01/28 07:08:31;;;;;;;10.80;4.78;;;;;;;0.93;83.08;102711.97;3547249;40;20306;-66
2024/01/28 07:10:58;;;;;;;12.85;4.85;;;;;;;0.91;82.58;102719.00;3544398;40;20077;-66
2024/01/28 07:13:23;;;;;;;8.85;4.70;;;;;;;0.68;82.17;102682.63;3544348;40;20054;-66
2024/01/28 07:15:49;;;;;;;11.55;5.45;;;;;;;0.86;83.16;102718.09;3542773;40;20058;-66
2024/01/28 07:18:15;;;;;;;8.38;4.80;;;;;;;0.84;82.17;102719.81;3547102;40;20253;-66
2024/01/28 07:20:40;;;;;;;9.00;4.85;;;;;;;0.83;83.05;102716.28;3543088;40;20061;-67
2024/01/28 07:23:06;;;;;;;13.20;5.32;;;;;;;0.81;82.54;102711.84;3545664;40;20284;-66
2024/01/28 07:25:32;;;;;;;9.60;5.05;;;;;;;0.79;82.56;102713.59;3543905;40;20476;-66
2024/01/28 07:27:57;;;;;;;9.07;5.18;;;;;;;0.75;82.68;102707.38;3545322;40;20065;-66
2024/01/28 07:30:23;;;;;;;11.85;4.82;;;;;;;0.51;83.52;102676.31;3544019;40;20058;-68
2024/01/28 07:32:48;;;;;;;11.43;4.30;;;;;;;0.69;84.47;102700.25;3543016;40;20058;-67
2024/01/28 07:35:15;;;;;;;9.15;4.60;;;;;;;0.69;84.15;102700.25;3540558;40;20591;-66
2024/01/28 07:37:42;;;;;;;9.70;4.40;;;;;;;0.69;83.80;102713.50;3545016;40;20377;-67
2024/01/28 07:40:08;;;;;;;11.00;5.10;;;;;;;0.65;84.20;102701.13;3544124;40;20057;-66
2024/01/28 07:42:34;;;;;;;8.32;4.97;;;;;;;0.63;83.89;102697.56;3547593;40;20034;-66
2024/01/28 07:44:59;;;;;;;10.88;4.72;;;;;;;0.63;83.99;102692.25;3540829;40;20081;-66
2024/01/28 07:47:25;;;;;;;11.73;5.20;;;;;;;0.62;84.14;102695.78;3546089;40;20061;-67
2024/01/28 07:49:51;;;;;;;11.63;5.28;;;;;;;0.46;84.10;102664.78;3543139;40;20599;-66
2024/01/28 07:52:17;;;;;;;11.45;5.75;;;;;;;0.68;84.65;102703.78;3545042;40;20065;-67
2024/01/28 07:54:42;;;;;;;10.20;5.40;;;;;;;0.75;85.03;102701.19;3539175;40;20276;-66
2024/01/28 07:57:08;;;;;;;11.85;5.75;;;;;;;0.79;83.65;102697.69;3541340;40;20059;-66
2024/01/28 07:59:33;;;;;;;10.98;4.90;;;;;;;0.87;83.68;102690.72;3541930;40;20053;-66
2024/01/28 08:01:59;;;;;;;11.48;4.68;;;;;;;0.95;84.38;102694.31;3537586;40;20110;-67
2024/01/28 08:04:25;;;;;;;8.07;4.30;;;;;;;1.08;83.99;102692.63;3543679;40;20430;-66
2024/01/28 08:06:50;;;;;;;10.43;4.55;;;;;;;1.20;83.07;102689.19;3542753;40;20060;-67
2024/01/28 08:09:16;;;;;;;7.85;4.18;;;;;;;1.31;82.70;102691.06;3547196;40;20299;-67
2024/01/28 08:11:42;;;;;;;7.00;4.15;;;;;;;1.22;81.65;102651.25;3546110;40;20052;-67
2024/01/28 08:14:07;;;;;;;9.50;4.43;;;;;;;1.51;82.08;102693.81;3544378;40;20073;-66
2024/01/28 08:16:33;;;;;;;9.05;4.07;;;;;;;1.63;80.74;102690.34;3542859;40;20273;-67
2024/01/28 08:18:58;;;;;;;10.18;4.93;;;;;;;1.70;80.28;102672.72;3541552;40;20062;-66
2024/01/28 08:21:24;;;;;;;8.30;4.20;;;;;;;1.78;79.94;102669.22;3544190;40;20268;-65
2024/01/28 08:23:50;;;;;;;7.72;3.92;;;;;;;1.90;79.53;102671.03;3541928;40;20050;-66
2024/01/28 08:26:15;;;;;;;7.28;4.03;;;;;;;1.97;79.28;102670.19;3541925;40;20070;-65
2024/01/28 08:28:41;;;;;;;7.05;4.13;;;;;;;2.06;79.07;102670.22;3541254;40;20050;-65
2024/01/28 08:31:07;;;;;;;9.70;5.15;;;;;;;2.17;79.26;102674.66;3541939;40;20070;-65
2024/01/28 08:33:33;;;;;;;11.02;5.03;;;;;;;2.24;78.86;102668.47;3539924;40;20090;-65
2024/01/28 08:35:58;;;;;;;10.52;5.65;;;;;;;2.32;77.76;102669.41;3541571;40;20092;-66
2024/01/28 08:38:24;;;;;;;12.15;7.25;;;;;;;2.37;77.21;102664.97;3541552;40;20064;-66
2024/01/28 08:40:49;;;;;;;13.48;7.63;;;;;;;2.47;78.02;102660.56;3541894;40;20092;-65
2024/01/28 08:43:15;;;;;;;15.20;7.65;;;;;;;2.58;76.54;102663.25;3544473;40;20062;-65
2024/01/28 08:45:42;;;;;;;13.38;7.07;;;;;;;2.66;75.31;102666.75;3544092;40;20060;-65
2024/01/28 08:48:07;;;;;;;11.48;7.00;;;;;;;2.78;75.53;102662.34;3540634;40;20054;-65
2024/01/28 08:50:33;;;;;;;12.43;5.90;;;;;;;2.87;75.14;102650.84;3543736;40;20093;-66
2024/01/28 08:52:59;;;;;;;10.23;5.75;;;;;;;2.98;74.61;102654.38;3543372;40;20059;-66
2024/01/28 08:55:24;;;;;;;11.65;5.13;;;;;;;3.10;74.15;102653.47;3540393;40;20064;-66
2024/01/28 08:57:50;;;;;;;9.93;5.15;;;;;;;3.23;73.55;102654.31;3540484;40;20395;-66
2024/01/28 09:00:16;;;;;;;9.18;4.53;;;;;;;3.36;73.40;102658.75;3543726;40;20058;-66
2024/01/28 09:02:41;;;;;;;7.63;4.30;;;;;;;3.49;72.08;102652.50;3542344;40;20398;-66
2024/01/28 09:05:08;;;;;;;7.22;3.60;;;;;;;3.61;71.32;102656.88;3541221;40;20060;-66
2024/01/28 09:07:34;;;;;;;7.30;4.05;;;;;;;3.62;70.96;102645.38;3542605;40;20097;-66
2024/01/28 09:10:00;;;;;;;7.28;3.72;;;;;;;3.80;70.19;102660.34;3540758;40;20454;-66
2024/01/28 09:12:26;;;;;;;7.70;3.72;;;;;;;3.77;69.43;102631.09;3543591;40;20058;-65
2024/01/28 09:14:52;;;;;;;8.88;4.00;;;;;;;4.00;69.15;102652.31;3540266;40;20057;-66
2024/01/28 09:17:18;;;;;;;7.30;3.67;;;;;;;4.12;69.06;102654.00;3542380;40;20050;-66
2024/01/28 09:19:44;;;;;;;9.00;3.95;;;;;;;4.27;67.79;102655.69;3542155;40;20409;-65
2024/01/28 09:22:09;;;;;;;6.93;3.47;;;;;;;4.40;67.00;102658.25;3541464;40;20066;-65
2024/01/28 09:24:36;;;;;;;10.25;5.47;;;;;;;4.48;66.71;102644.03;3542700;40;20057;-65
2024/01/28 09:27:02;;;;;;;6.90;3.50;;;;;;;4.61;65.95;102653.69;3541293;40;20078;-66
2024/01/28 09:29:30;;;;;;;8.73;3.60;;;;;;;4.29;65.13;102574.94;3539535;40;20098;-66
2024/01/28 09:31:59;;;;;;;5.97;3.13;;;;;;;4.82;65.10;102639.28;3541618;40;20047;-66
2024/01/28 09:34:25;;;;;;;6.70;3.60;;;;;;;4.92;64.85;102638.34;3543254;40;20076;-66
2024/01/28 09:36:50;;;;;;;10.10;3.83;;;;;;;4.88;64.65;102617.91;3539482;40;20051;-66
2024/01/28 09:39:17;;;;;;;8.60;3.42;;;;;;;5.07;63.78;102634.63;3542202;40;20058;-65
2024/01/28 09:41:56;;;;;;;6.70;3.47;;;;;;;5.19;63.28;102628.28;3541397;40;20116;-65
2024/01/28 09:44:21;;;;;;;6.60;3.60;;;;;;;5.32;62.54;102628.13;3541936;40;20053;-66
2024/01/28 09:46:47;;;;;;;5.97;3.42;;;;;;;5.48;61.33;102635.97;3538831;40;20311;-66
2024/01/28 09:49:16;;;;;;;9.88;3.83;;;;;;;5.51;61.77;102606.59;3542735;40;20053;-66
2024/01/28 09:51:42;;;;;;;8.23;3.90;;;;;;;5.82;60.96;102631.97;3543605;40;20054;-66
2024/01/28 09:54:10;;;;;;;8.02;3.20;;;;;;;6.04;60.03;102639.72;3543726;40;20062;-66
2024/01/28 09:56:37;;;;;;;5.95;3.08;;;;;;;6.24;58.88;102629.63;3542186;40;20128;-66
2024/01/28 09:59:05;;;;;;;8.80;3.42;;;;;;;6.21;59.02;102594.97;3542578;40;20066;-67
2024/01/28 10:01:32;;;;;;;6.32;3.63;;;;;;;6.57;58.42;102597.97;3543715;40;20066;-66
2024/01/28 10:04:00;;;;;;;7.38;3.60;;;;;;;7.01;56.62;102625.72;3542391;40;20061;-66
2024/01/28 10:06:26;;;;;;;7.90;3.80;;;;;;;7.30;56.12;102626.97;3543777;40;20061;-66
2024/01/28 10:08:52;;;;;;;7.60;3.65;;;;;;;7.57;54.91;102620.19;3543387;40;20049;-66
2024/01/28 10:11:19;;;;;;;7.13;3.60;;;;;;;7.67;54.89;102606.59;3544351;40;20053;-66
2024/01/28 10:13:46;;;;;;;4.75;3.25;;;;;;;7.99;53.66;102615.72;3542820;40;20058;-65
2024/01/28 10:16:12;;;;;;;5.65;3.10;;;;;;;8.12;52.01;102609.16;3544277;40;20311;-66
2024/01/28 10:18:37;;;;;;;5.15;3.10;;;;;;;8.22;51.72;102612.53;3545792;40;20046;-66
2024/01/28 10:21:03;;;;;;;6.65;2.95;;;;;;;8.35;51.80;102605.06;3542553;40;20167;-66
2024/01/28 10:23:29;;;;;;;5.13;3.38;;;;;;;8.35;50.97;102595.22;3543760;40;20060;-66
2024/01/28 10:26:00;;;;;;;6.85;3.35;;;;;;;8.63;51.14;102601.72;3542746;40;20062;-66
2024/01/28 10:28:29;;;;;;;6.88;3.22;;;;;;;8.67;50.37;102595.38;3542769;40;20213;-66
2024/01/28 10:30:55;;;;;;;5.65;3.17;;;;;;;8.81;51.06;102601.25;3543223;40;20042;-66
2024/01/28 10:33:21;;;;;;;6.13;3.47;;;;;;;8.95;50.02;102599.13;3544250;40;20058;-66
2024/01/28 10:35:47;;;;;;;8.27;3.83;;;;;;;9.16;49.25;102599.44;3541868;40;20064;-67
2024/01/28 10:38:20;;;;;;;7.78;4.07;;;;;;;9.35;49.95;102595.31;3544246;40;20088;-66
2024/01/28 10:40:49;;;;;;;5.03;3.13;;;;;;;9.62;50.28;102587.41;3543690;40;20300;-66
2024/01/28 10:43:17;;;;;;;6.60;3.15;;;;;;;9.84;49.28;102593.03;3544257;40;20061;-66
2024/01/28 10:45:46;;;;;;;5.22;2.92;;;;;;;10.01;47.76;102590.69;3543309;40;20058;-66
2024/01/28 10:48:17;;;;;;;5.97;3.20;;;;;;;10.10;46.74;102593.06;3543316;40;20050;-66
2024/01/28 10:50:44;;;;;;;7.28;3.30;;;;;;;10.23;47.71;102593.56;3544653;40;20119;-66
2024/01/28 10:53:12;;;;;;;6.22;3.20;;;;;;;10.39;48.03;102585.91;3546252;40;20074;-66
2024/01/28 10:55:40;;;;;;;5.88;3.40;;;;;;;10.63;48.15;102581.56;3539927;40;20052;-66
2024/01/28 10:58:07;;;;;;;7.22;3.50;;;;;;;10.69;45.60;102586.72;3539362;40;20117;-66
2024/01/28 11:00:35;;;;;;;6.10;3.17;;;;;;;10.85;46.51;102573.63;3541748;40;20470;-66
2024/01/28 11:03:06;;;;;;;6.57;3.67;;;;;;;10.95;45.95;102563.41;3537661;40;20151;-66
2024/01/28 11:05:35;;;;;;;9.10;3.20;;;;;;;11.14;46.12;102562.69;3540568;40;20054;-66
2024/01/28 11:08:01;;;;;;;6.70;2.90;;;;;;;11.32;45.10;102563.84;3544617;40;20428;-65
2024/01/28 11:10:28;;;;;;;6.00;3.05;;;;;;;11.51;44.89;102561.34;3541421;40;20069;-65
2024/01/28 11:12:58;;;;;;;15.13;3.25;;;;;;;11.58;43.23;102561.97;3544351;40;20049;-65
2024/01/28 11:15:26;;;;;;;6.43;2.95;;;;;;;11.66;43.83;102549.06;3540669;40;20050;-65
2024/01/28 11:17:51;;;;;;;6.55;3.30;;;;;;;11.58;43.65;102548.50;3541347;40;20394;-68
2024/01/28 11:20:27;;;;;;;5.32;3.10;;;;;;;11.72;45.16;102546.13;3540823;40;20050;-65
2024/01/28 11:23:01;;;;;;;6.68;3.83;;;;;;;11.94;43.01;102546.22;3534896;40;20076;-68